Terminal Aerodrome Forecast
Issued by NWS Duluth, MN

Home | Current Version | Previous Version | Text Only | Print | Product List | Glossary On
Versions: 1 2 3 4 5 6 7 8 9 10 11 12 13 14 15 16 17 18 19 20 21 22 23
649
FTUS43 KDLH 280832 AAA
TAFINL
TAF AMD
KINL 280832Z 2809/2906 08004KT P6SM SCT025 BKN070
     FM281000 06005KT P6SM BKN025 OVC050
     FM281500 05005KT 4SM -DZ OVC012
     FM282000 03005KT P6SM VCSH OVC008
     FM290000 VRB02KT 4SM BR VCSH SCT004 OVC007=

USA.gov is the U.S. government's official web portal to all federal, state and local government web resources and services.